• Join FlightAware (Why Join?)
  • Login
  • US Flag 
08:36PM EDT


 

Airport Tracker/Info


-or-


 

Live Flight TrackerFlight Track Log ✈ EJA848 ✈ 04-Nov-2013 ✈ KSDL - KHPN

Flight Track Log - Related Links

Times and Time Zones

All times are in EST time to prevent confusion due to time zone crossing. See the EJA848 flight status page for this flight to view local times or setup timezone preferences in your user account.

Time Position Orientation Groundspeed Altitude Reporting Facility
EST Latitude Longitude Course Direction KTS MPH feet Rate Location/Type
12:12PM 33.6167 -111.9833 264° West 204 235 4,500  Level Phoenix TRACON
12:12PM 33.6667 -111.9833 360° North 233 268 7,200 2,820 Climbing Phoenix TRACON
12:14PM 33.7586 -111.8978 38° Northeast 292 336 11,300 2,700 Climbing Albuquerque Center
12:15PM 33.7886 -111.8069 68° East 324 373 14,000 1,860 Climbing Albuquerque Center
12:16PM 33.7756 -111.6933 98° East 348 400 15,200 1,620 Climbing Albuquerque Center
12:17PM 33.7492 -111.5681 104° East 386 444 17,400 2,460 Climbing Albuquerque Center
12:18PM 33.7178 -111.4133 104° East 399 459 20,300 2,460 Climbing Albuquerque Center
12:19PM 33.7003 -111.2808 99° East 406 467 22,600 2,100 Climbing Albuquerque Center
12:20PM 33.7308 -111.1469 75° East 418 481 24,700 1,860 Climbing Albuquerque Center
12:21PM 33.7783 -111.0158 66° East 428 493 26,500 1,500 Climbing Albuquerque Center
12:22PM 33.8269 -110.8772 67° East 442 509 27,800 1,320 Climbing Albuquerque Center
12:23PM 33.8878 -110.7061 67° East 460 529 29,300 1,320 Climbing Albuquerque Center
12:24PM 33.9394 -110.5586 67° East 472 543 30,600 1,200 Climbing Albuquerque Center
12:25PM 33.9914 -110.4122 67° East 476 548 31,900 1,200 Climbing Albuquerque Center
12:26PM 34.0478 -110.2461 68° East 478 550 33,200 1,080 Climbing Albuquerque Center
12:27PM 34.1003 -110.0967 67° East 481 554 34,200 840 Climbing Albuquerque Center
12:28PM 34.1522 -109.9469 67° East 485 558 35,000 720 Climbing Albuquerque Center
12:29PM 34.2122 -109.7731 67° East 497 572 35,800 660 Climbing Albuquerque Center
12:30PM 34.2631 -109.6217 68° East 504 580 36,400 540 Climbing Albuquerque Center
12:31PM 34.3231 -109.4422 68° East 512 589 37,000 540 Climbing Albuquerque Center
12:33PM 34.3756 -109.2906 67° East 513 590 37,600 480 Climbing Albuquerque Center
12:34PM 34.4353 -109.1081 68° East 518 596 38,000 360 Climbing Albuquerque Center
12:35PM 34.4786 -108.9472 72° East 521 600 38,400 420 Climbing Albuquerque Center
12:36PM 34.5308 -108.7592 71° East 526 605 38,900 420 Climbing Albuquerque Center
12:37PM 34.5744 -108.5961 72° East 529 609 39,300 360 Climbing Albuquerque Center
12:38PM 34.6186 -108.4358 71° East 527 606 39,700 360 Climbing Albuquerque Center
12:39PM 34.6708 -108.2458 71° East 530 610 40,100 360 Climbing Albuquerque Center
12:40PM 34.7178 -108.0700 72° East 529 609 40,500 360 Climbing Albuquerque Center
12:41PM 34.7639 -107.8986 72° East 531 611 40,900 240 Climbing Albuquerque Center
12:42PM 34.8081 -107.7286 72° East 530 610 41,000  Climbing Albuquerque Center
12:43PM 34.8539 -107.5553 72° East 534 615 41,000  Level Albuquerque Center
12:44PM 34.9075 -107.3469 73° East 543 625 41,000  Level Albuquerque Center
12:45PM 34.9531 -107.1728 72° East 541 623 41,000  Level Albuquerque Center
12:46PM 34.9969 -107.0000 73° East 536 617 41,000  Level Albuquerque Center
12:47PM 35.0414 -106.8306 72° East 534 615 41,000  Level Albuquerque Center
12:48PM 35.1014 -106.6647 66° East 536 617 41,000  Level Albuquerque Center
12:49PM 35.1633 -106.4969 66° East 544 626 41,000  Level Albuquerque Center
12:50PM 35.2364 -106.2967 66° East 543 625 41,000  Level Albuquerque Center
12:51PM 35.2964 -106.1344 66° East 532 612 41,000  Level Albuquerque Center
12:52PM 35.3569 -105.9686 66° East 536 617 41,000  Level Albuquerque Center
12:53PM 35.4256 -105.7811 66° East 538 619 41,000  Level Albuquerque Center
12:54PM 35.4900 -105.6017 66° East 544 626 41,000  Level Albuquerque Center
12:55PM 35.5508 -105.4383 65° Northeast 543 625 41,000  Level Albuquerque Center
12:56PM 35.6117 -105.2667 66° East 543 625 41,000  Level Albuquerque Center
12:57PM 35.6786 -105.0986 64° Northeast 539 620 41,000  Level Albuquerque Center
12:58PM 35.7642 -104.9403 56° Northeast 545 627 41,000  Level Albuquerque Center
12:59PM 35.8497 -104.7822 56° Northeast 546 628 41,000  Level Albuquerque Center
01:00PM 35.9486 -104.6017 56° Northeast 540 621 41,000  Level Albuquerque Center
01:01PM 36.0336 -104.4436 56° Northeast 543 625 41,000  Level Albuquerque Center
01:03PM 36.1181 -104.2850 57° Northeast 544 626 41,000  Level Albuquerque Center
01:04PM 36.2028 -104.1269 56° Northeast 544 626 41,000  Level Albuquerque Center
01:05PM 36.2878 -103.9694 56° Northeast 544 626 41,000  Level Albuquerque Center
01:06PM 36.3722 -103.8078 57° Northeast 548 631 41,000  Level Albuquerque Center
01:07PM 36.4567 -103.6478 57° Northeast 549 632 41,000  Level Albuquerque Center
01:08PM 36.5397 -103.4856 57° Northeast 550 633 41,000  Level Albuquerque Center
01:09PM 36.6381 -103.2975 57° Northeast 550 633 41,000  Level Albuquerque Center
01:10PM 36.7164 -103.1450 57° Northeast 553 636 41,000  Level Albuquerque Center
01:11PM 36.8089 -102.9667 57° Northeast 551 634 41,000  Level Albuquerque Center
01:12PM 36.8872 -102.8111 58° Northeast 553 636 41,000  Level Albuquerque Center
01:13PM 36.9797 -102.6308 57° Northeast 553 636 41,000  Level Albuquerque Center
01:14PM 37.0564 -102.4800 57° Northeast 551 634 41,000  Level Albuquerque Center
01:15PM 37.1333 -102.3247 58° Northeast 549 632 41,000  Level Kansas City Center
01:16PM 37.2247 -102.1436 58° Northeast 550 633 41,000  Level Kansas City Center
01:17PM 37.3028 -101.9872 58° Northeast 551 634 41,000  Level Kansas City Center
01:18PM 37.3800 -101.8294 58° Northeast 553 636 41,000  Level Kansas City Center
01:19PM 37.4714 -101.6456 58° Northeast 554 638 41,000  Level Kansas City Center
01:20PM 37.5494 -101.4883 58° Northeast 553 636 41,000  Level Kansas City Center
01:21PM 37.6397 -101.3019 59° Northeast 555 639 41,000  Level Kansas City Center
01:22PM 37.7144 -101.1489 58° Northeast 555 639 41,000  Level Kansas City Center
01:23PM 37.8106 -100.9531 58° Northeast 556 640 41,000  Level Kansas City Center
01:24PM 37.9036 -100.8022 52° Northeast 564 649 41,000  Level Kansas City Center
01:25PM 38.0028 -100.6658 47° Northeast 551 634 41,000  Level Kansas City Center
01:26PM 38.1183 -100.5047 48° Northeast 549 632 41,000  Level Kansas City Center
01:27PM 38.2167 -100.3664 48° Northeast 550 633 41,000  Level Kansas City Center
01:28PM 38.3325 -100.2072 47° Northeast 549 632 41,000  Level Kansas City Center
01:29PM 38.4314 -100.0703 47° Northeast 549 632 41,000  Level Kansas City Center
01:30PM 38.5469 -99.9117 47° Northeast 546 628 41,000  Level Kansas City Center
01:31PM 38.6425 -99.7706 49° Northeast 548 631 41,000  Level Kansas City Center
01:32PM 38.6919 -99.5597 73° East 548 631 41,000  Level Kansas City Center
01:33PM 38.7294 -99.3822 75° East 547 629 41,000  Level Kansas City Center
01:34PM 38.7736 -99.1953 73° East 548 631 41,000  Level Kansas City Center
01:36PM 38.8194 -99.0056 73° East 552 635 41,000  Level Kansas City Center
01:37PM 38.8642 -98.8167 73° East 551 634 41,000  Level Kansas City Center
01:38PM 38.9164 -98.5903 73° East 550 633 41,000  Level Kansas City Center
01:39PM 38.9611 -98.4011 73° East 552 635 41,000  Level Kansas City Center
01:40PM 39.0047 -98.2122 73° East 551 634 41,000  Level Kansas City Center
01:41PM 39.0472 -98.0228 74° East 551 634 41,000  Level Kansas City Center
01:42PM 39.0928 -97.8261 73° East 553 636 41,000  Level Kansas City Center
01:43PM 39.1403 -97.6142 74° East 553 636 41,000  Level Kansas City Center
01:44PM 39.1811 -97.4322 74° East 552 635 41,000  Level Kansas City Center
01:45PM 39.2278 -97.2194 74° East 552 635 41,000  Level Kansas City Center
01:46PM 39.2669 -97.0383 74° East 549 632 41,000  Level Kansas City Center
01:47PM 39.3067 -96.8547 74° East 552 635 41,000  Level Kansas City Center
01:48PM 39.3536 -96.6417 74° East 552 635 41,000  Level Kansas City Center
01:49PM 39.3919 -96.4561 75° East 555 639 41,000  Level Kansas City Center
01:50PM 39.4328 -96.2639 75° East 555 639 41,000  Level Kansas City Center
01:51PM 39.4747 -96.0558 75° East 556 640 41,000  Level Kansas City Center
01:52PM 39.5194 -95.8403 75° East 554 638 41,000  Level Kansas City Center
01:53PM 39.5578 -95.6544 75° East 554 638 41,000  Level Kansas City Center
01:54PM 39.6019 -95.4364 75° East 556 640 41,000  Level Kansas City Center
01:55PM 39.6389 -95.2503 75° East 553 636 41,000  Level Kansas City Center
01:56PM 39.6764 -95.0631 75° East 554 638 41,000  Level Kansas City Center
01:57PM 39.7183 -94.8456 76° East 554 638 41,000  Level Kansas City Center
01:58PM 39.7556 -94.6592 75° East 554 638 41,000  Level Kansas City Center
01:59PM 39.7964 -94.4411 76° East 554 638 41,000  Level Kansas City Center
02:00PM 39.8331 -94.2553 76° East 554 638 41,000  Level Kansas City Center
02:01PM 39.8708 -94.0431 77° East 555 639 41,000  Level Kansas City Center
02:02PM 39.9064 -93.8497 76° East 553 636 41,000  Level Kansas City Center
02:03PM 39.9439 -93.6589 76° East 550 633 41,000  Level Kansas City Center
02:04PM 39.9783 -93.4653 77° East 552 635 41,000  Level Kansas City Center
02:06PM 40.0203 -93.2347 77° East 551 634 41,000  Level Kansas City Center
02:07PM 40.0553 -93.0419 77° East 552 635 41,000  Level Kansas City Center
02:08PM 40.0869 -92.8575 77° East 552 635 41,000  Level Kansas City Center
02:09PM 40.1250 -92.6386 77° East 552 635 41,000  Level Kansas City Center
02:10PM 40.1806 -92.4611 68° East 555 639 41,000  Level Kansas City Center
02:11PM 40.2522 -92.2642 64° Northeast 554 638 41,000  Level Kansas City Center
02:12PM 40.3169 -92.0842 65° Northeast 554 638 41,000  Level Kansas City Center
02:13PM 40.3811 -91.9044 65° Northeast 553 636 41,000  Level Kansas City Center
02:13PM 40.4322 -91.7617 65° Northeast 552 635 41,000  Level Chicago Center
02:14PM 40.4944 -91.5794 66° East 553 636 41,000  Level Chicago Center
02:15PM 40.5536 -91.3953 67° East 552 635 41,000  Level Chicago Center
02:17PM 40.6169 -91.2142 65° Northeast 551 634 41,000  Level Chicago Center
02:18PM 40.6819 -91.0331 65° Northeast 551 634 41,000  Level Chicago Center
02:19PM 40.7558 -90.8131 66° East 552 635 41,000  Level Chicago Center
02:20PM 40.8169 -90.6308 66° East 549 632 41,000  Level Chicago Center
02:21PM 40.8786 -90.4472 66° East 550 633 41,000  Level Chicago Center
02:22PM 40.9433 -90.2472 67° East 548 631 41,000  Level Chicago Center
02:23PM 41.0061 -90.0628 66° East 549 632 41,000  Level Chicago Center
02:24PM 41.0656 -89.8786 67° East 546 628 41,000  Level Chicago Center
02:25PM 41.1250 -89.6933 67° East 547 629 41,000  Level Chicago Center
02:26PM 41.1836 -89.5097 67° East 544 626 41,000  Level Chicago Center
02:27PM 41.2525 -89.2856 68° East 548 631 41,000  Level Chicago Center
02:28PM 41.3103 -89.0986 68° East 549 632 41,000  Level Chicago Center
02:29PM 41.3678 -88.9114 68° East 548 631 41,000  Level Chicago Center
02:30PM 41.4253 -88.7211 68° East 550 633 41,000  Level Chicago Center
02:31PM 41.4828 -88.5308 68° East 552 635 41,000  Level Chicago Center
02:32PM 41.5400 -88.3364 68° East 557 641 41,000  Level Chicago Center
02:33PM 41.5689 -88.1317 79° East 551 634 41,000  Level Chicago Center
02:34PM 41.5933 -87.9236 81° East 553 636 41,000  Level Chicago Center
02:35PM 41.6211 -87.6753 81° East 559 643 41,000  Level Chicago Center
02:36PM 41.6444 -87.4722 81° East 554 638 41,000  Level Chicago Center
02:37PM 41.6686 -87.2703 81° East 553 636 41,000  Level Chicago Center
02:38PM 41.6911 -87.0658 82° East 555 639 41,000  Level Chicago Center
02:39PM 41.7122 -86.8625 82° East 555 639 41,000  Level Chicago Center
02:40PM 41.7331 -86.6606 82° East 555 639 41,000  Level Chicago Center
02:41PM 41.7586 -86.4144 82° East 557 641 41,000  Level Chicago Center
02:42PM 41.7786 -86.2114 82° East 553 636 41,000  Level Chicago Center
02:43PM 41.8003 -86.0072 82° East 553 636 41,000  Level Chicago Center
02:44PM 41.8208 -85.8058 82° East 551 634 41,000  Level Chicago Center
02:45PM 41.8431 -85.5958 82° East 554 638 41,000  Level Chicago Center
02:46PM 41.8631 -85.3881 83° East 553 636 41,000  Level Chicago Center
02:48PM 41.8831 -85.1817 83° East 550 633 41,000  Level Chicago Center
02:49PM 41.9039 -84.9769 82° East 550 633 41,000  Level Chicago Center
02:50PM 41.9286 -84.7303 82° East 556 640 41,000  Level Chicago Center
02:51PM 41.9492 -84.5286 82° East 548 631 41,000  Level Chicago Center
02:52PM 41.9689 -84.3181 83° East 547 629 41,000  Level Chicago Center
02:53PM 41.9889 -84.1169 82° East 546 628 41,000  Level Chicago Center
02:54PM 42.0069 -83.9158 83° East 546 628 41,000  Level Chicago Center
02:55PM 42.0283 -83.6642 83° East 545 627 41,000  Level Cleveland Center
02:56PM 42.0453 -83.4575 84° East 546 628 41,000  Level Cleveland Center
02:57PM 42.0567 -83.2533 86° East 544 626 41,000  Level Cleveland Center
02:58PM 42.0675 -83.0256 86° East 547 629 41,000  Level Cleveland Center
02:59PM 42.0778 -82.8250 86° East 543 625 41,000  Level Cleveland Center
03:00PM 42.0900 -82.6250 85° East 540 621 41,000  Level Cleveland Center
03:01PM 42.1108 -82.4269 82° East 538 619 41,000  Level Cleveland Center
03:02PM 42.1322 -82.1872 83° East 539 620 41,000  Level Cleveland Center
03:03PM 42.1492 -81.9972 83° East 538 619 41,000  Level Cleveland Center
03:04PM 42.1667 -81.7953 83° East 537 618 41,000  Level Cleveland Center
03:05PM 42.1833 -81.5922 84° East 538 619 41,000  Level Cleveland Center
03:06PM 42.1994 -81.3903 84° East 536 617 41,000  Level Cleveland Center
03:07PM 42.2194 -81.1536 83° East 537 618 41,000  Level Cleveland Center
03:08PM 42.2344 -80.9528 84° East 533 613 41,000  Level Cleveland Center
03:09PM 42.2500 -80.7497 84° East 536 617 41,000  Level Cleveland Center
03:10PM 42.2658 -80.5489 84° East 534 615 41,000  Level Cleveland Center
03:12PM 42.2808 -80.3475 84° East 535 616 41,000  Level Cleveland Center
03:13PM 42.2831 -80.1431 89° East 538 619 41,000  Level Cleveland Center
03:14PM 42.2847 -79.9342 89° East 536 617 41,000  Level Cleveland Center
03:15PM 42.2869 -79.7336 89° East 536 617 41,000  Level Cleveland Center
03:16PM 42.2886 -79.5319 89° East 539 620 41,000  Level Cleveland Center
03:17PM 42.2917 -79.2922 89° East 535 616 41,000  Level Cleveland Center
03:18PM 42.2967 -79.0911 88° East 535 616 41,000  Level Cleveland Center
03:19PM 42.3150 -78.8911 83° East 533 613 41,000  Level Cleveland Center
03:20PM 42.3317 -78.6950 83° East 527 606 41,000  Level Cleveland Center
03:21PM 42.3481 -78.4978 84° East 530 610 41,000  Level Cleveland Center
03:22PM 42.3639 -78.3014 84° East 529 609 41,000  Level Cleveland Center
03:23PM 42.3822 -78.0667 84° East 528 608 41,000  Level Cleveland Center
03:24PM 42.3967 -77.8714 84° East 526 605 41,000 -300 Level Cleveland Center
03:25PM 42.4117 -77.6792 84° East 527 606 40,400 -1,140 Descending Cleveland Center
03:26PM 42.4297 -77.4456 84° East 538 619 38,700 -1,800 Descending Cleveland Center
03:27PM 42.4436 -77.2414 85° East 542 624 36,800 -1,920 Descending Cleveland Center
03:28PM 42.4572 -77.0375 85° East 546 628 34,800 -1,560 Descending Cleveland Center
03:29PM 42.4711 -76.8383 85° East 540 621 33,600 -900 Descending Cleveland Center
03:30PM 42.4844 -76.6411 85° East 532 612 33,000 -300 Descending Cleveland Center
03:31PM 42.4911 -76.4417 87° East 531 611 33,000 -120 Level Cleveland Center
03:32PM 42.4469 -76.2261 105° East 530 610 32,800 -1,020 Descending Boston Center
03:33PM 42.4058 -76.0242 105° East 528 608 31,000 -1,740 Descending Boston Center
03:34PM 42.3664 -75.8344 106° East 529 609 29,300 -1,740 Descending Boston Center
03:35PM 42.3283 -75.6528 106° East 513 590 27,600 -1,860 Descending Boston Center
03:36PM 42.2925 -75.4800 106° East 502 578 25,600 -2,220 Descending Boston Center
03:37PM 42.2533 -75.3036 107° East 485 558 23,100 -2,460 Descending Boston Center
03:38PM 42.2172 -75.1414 107° East 467 537 20,600 -2,340 Descending Boston Center
03:39PM 42.1828 -74.9781 106° East 453 521 18,300 -1,320 Descending Boston Center
03:40PM 42.1247 -74.8286 118° Southeast 455 524 18,000 -300 Descending Boston Center
03:41PM 42.0517 -74.6567 120° Southeast 452 520 17,700 -1,140 Descending Boston Center
03:42PM 41.9911 -74.5117 119° Southeast 447 514 15,700 -1,920 Descending Boston Center
03:43PM 41.9353 -74.3814 120° Southeast 407 468 13,900 -1,740 Descending Boston Center
03:44PM 41.8797 -74.2536 120° Southeast 369 425 12,200 -1,500 Descending Boston Center
03:45PM 41.8322 -74.1514 122° Southeast 325 374 10,900 -1,440 Descending Boston Center
03:46PM 41.7850 -74.0589 124° Southeast 301 346 9,300 -1,560 Descending Boston Center
03:48PM 41.7125 -74.0186 157° South 280 322 7,700 -1,560 Descending Boston Center
03:49PM 41.6358 -73.9814 160° South 272 313 6,100 -1,020 Descending Boston Center
03:49PM 41.5833 -73.9500 156° South 268 308 6,000  Descending New York TRACON
03:50PM 41.5167 -73.9167 159° South 269 310 6,100 -540 Climbing New York TRACON
03:51PM 41.4500 -73.8833 159° South 264 304 5,000 -1,200 Descending New York TRACON
03:52PM 41.4000 -73.8500 153° Southeast 242 278 3,700 -960 Descending New York TRACON
03:53PM 41.3333 -73.7833 143° Southeast 245 282 3,100 -300 Descending New York TRACON
03:54PM 41.2833 -73.7500 153° Southeast 228 262 3,100  Level New York TRACON
03:55PM 41.2333 -73.7000 143° Southeast 213 245 3,100  Level New York TRACON
03:56PM 41.1833 -73.6500 143° Southeast 210 242 3,100 -480 Level New York TRACON
03:57PM 41.1333 -73.6167 153° Southeast 208 239 2,200 -540 Descending New York TRACON
03:58PM 41.1000 -73.5833 143° Southeast 207 238 2,100 -60 Descending New York TRACON
03:59PM 41.0500 -73.5667 166° South 173 199 2,100  Level New York TRACON
04:00PM 41.0000 -73.5667 180° South 194 223 2,100  Level New York TRACON
04:01PM 40.9833 -73.6333 252° West 197 227 2,100 -300 Level New York TRACON
04:02PM 41.0167 -73.6667 323° Northwest 167 192 1,500 -840 Descending New York TRACON
04:03PM 41.0500 -73.7000 323° Northwest 135 155 600 -1,020 Descending New York TRACON